sensor_id;sensor_type;location;lat;lon;timestamp;P1;durP1;ratioP1;P2;durP2;ratioP2
12687;SDS011;6408;59.388;17.798;2023-05-02T00:01:44;0.30;;;0.30;;
12687;SDS011;6408;59.388;17.798;2023-05-02T00:04:12;0.50;;;0.50;;
12687;SDS011;6408;59.388;17.798;2023-05-02T00:06:39;0.30;;;0.30;;
12687;SDS011;6408;59.388;17.798;2023-05-02T00:09:10;0.30;;;0.30;;
12687;SDS011;6408;59.388;17.798;2023-05-02T00:11:38;0.40;;;0.20;;
12687;SDS011;6408;59.388;17.798;2023-05-02T00:14:05;0.40;;;0.40;;
12687;SDS011;6408;59.388;17.798;2023-05-02T00:16:32;0.20;;;0.20;;
12687;SDS011;6408;59.388;17.798;2023-05-02T00:19:02;0.30;;;0.30;;
12687;SDS011;6408;59.388;17.798;2023-05-02T00:21:29;0.30;;;0.30;;
12687;SDS011;6408;59.388;17.798;2023-05-02T00:23:57;0.40;;;0.40;;
12687;SDS011;6408;59.388;17.798;2023-05-02T00:26:25;1.37;;;0.60;;
12687;SDS011;6408;59.388;17.798;2023-05-02T00:28:53;0.70;;;0.70;;
12687;SDS011;6408;59.388;17.798;2023-05-02T00:31:20;0.70;;;0.70;;
12687;SDS011;6408;59.388;17.798;2023-05-02T00:33:48;0.50;;;0.50;;
12687;SDS011;6408;59.388;17.798;2023-05-02T00:36:17;0.50;;;0.50;;
12687;SDS011;6408;59.388;17.798;2023-05-02T00:38:45;0.57;;;0.57;;
12687;SDS011;6408;59.388;17.798;2023-05-02T00:41:13;0.60;;;0.60;;
12687;SDS011;6408;59.388;17.798;2023-05-02T00:43:42;0.60;;;0.60;;
12687;SDS011;6408;59.388;17.798;2023-05-02T00:46:09;0.60;;;0.60;;
12687;SDS011;6408;59.388;17.798;2023-05-02T00:48:37;0.40;;;0.40;;
12687;SDS011;6408;59.388;17.798;2023-05-02T00:51:05;0.70;;;0.70;;
12687;SDS011;6408;59.388;17.798;2023-05-02T00:53:38;0.50;;;0.50;;
12687;SDS011;6408;59.388;17.798;2023-05-02T00:56:05;0.40;;;0.40;;
12687;SDS011;6408;59.388;17.798;2023-05-02T00:58:34;0.30;;;0.30;;
12687;SDS011;6408;59.388;17.798;2023-05-02T01:01:05;0.60;;;0.60;;
12687;SDS011;6408;59.388;17.798;2023-05-02T01:03:41;0.60;;;0.40;;
12687;SDS011;6408;59.388;17.798;2023-05-02T01:06:22;0.97;;;0.70;;
12687;SDS011;6408;59.388;17.798;2023-05-02T01:09:01;0.60;;;0.60;;
12687;SDS011;6408;59.388;17.798;2023-05-02T01:11:43;0.50;;;0.50;;
12687;SDS011;6408;59.388;17.798;2023-05-02T01:14:16;0.60;;;0.60;;
12687;SDS011;6408;59.388;17.798;2023-05-02T01:16:45;0.50;;;0.50;;
12687;SDS011;6408;59.388;17.798;2023-05-02T01:19:21;0.40;;;0.40;;
12687;SDS011;6408;59.388;17.798;2023-05-02T01:21:55;0.60;;;0.60;;
12687;SDS011;6408;59.388;17.798;2023-05-02T01:24:27;0.60;;;0.60;;
12687;SDS011;6408;59.388;17.798;2023-05-02T01:27:10;0.60;;;0.50;;
12687;SDS011;6408;59.388;17.798;2023-05-02T01:29:46;0.50;;;0.50;;
12687;SDS011;6408;59.388;17.798;2023-05-02T01:32:16;0.60;;;0.60;;
12687;SDS011;6408;59.388;17.798;2023-05-02T01:34:47;0.50;;;0.50;;
12687;SDS011;6408;59.388;17.798;2023-05-02T01:37:18;0.87;;;0.60;;
12687;SDS011;6408;59.388;17.798;2023-05-02T01:39:46;0.43;;;0.43;;
12687;SDS011;6408;59.388;17.798;2023-05-02T01:42:16;0.30;;;0.30;;
12687;SDS011;6408;59.388;17.798;2023-05-02T01:44:47;0.40;;;0.40;;
12687;SDS011;6408;59.388;17.798;2023-05-02T01:47:17;0.20;;;0.20;;
12687;SDS011;6408;59.388;17.798;2023-05-02T01:49:45;0.70;;;0.30;;
12687;SDS011;6408;59.388;17.798;2023-05-02T01:52:13;1.00;;;0.50;;
12687;SDS011;6408;59.388;17.798;2023-05-02T01:54:42;0.37;;;0.37;;
12687;SDS011;6408;59.388;17.798;2023-05-02T01:57:10;0.60;;;0.60;;
12687;SDS011;6408;59.388;17.798;2023-05-02T01:59:39;0.40;;;0.40;;
12687;SDS011;6408;59.388;17.798;2023-05-02T02:02:10;0.97;;;0.40;;
12687;SDS011;6408;59.388;17.798;2023-05-02T02:04:40;0.67;;;0.67;;
12687;SDS011;6408;59.388;17.798;2023-05-02T02:07:08;0.33;;;0.33;;
12687;SDS011;6408;59.388;17.798;2023-05-02T02:09:38;0.30;;;0.30;;
12687;SDS011;6408;59.388;17.798;2023-05-02T02:12:07;0.83;;;0.57;;
12687;SDS011;6408;59.388;17.798;2023-05-02T02:14:39;0.57;;;0.57;;
12687;SDS011;6408;59.388;17.798;2023-05-02T02:17:14;0.47;;;0.40;;
12687;SDS011;6408;59.388;17.798;2023-05-02T02:19:47;0.40;;;0.40;;
12687;SDS011;6408;59.388;17.798;2023-05-02T02:22:19;0.60;;;0.50;;
12687;SDS011;6408;59.388;17.798;2023-05-02T02:24:48;0.80;;;0.53;;
12687;SDS011;6408;59.388;17.798;2023-05-02T02:27:19;0.60;;;0.60;;
12687;SDS011;6408;59.388;17.798;2023-05-02T02:29:47;0.87;;;0.60;;
12687;SDS011;6408;59.388;17.798;2023-05-02T02:32:16;0.63;;;0.63;;
12687;SDS011;6408;59.388;17.798;2023-05-02T02:34:43;0.60;;;0.60;;
12687;SDS011;6408;59.388;17.798;2023-05-02T02:37:13;1.73;;;0.70;;
12687;SDS011;6408;59.388;17.798;2023-05-02T02:39:47;0.50;;;0.50;;
12687;SDS011;6408;59.388;17.798;2023-05-02T02:42:22;0.73;;;0.73;;
12687;SDS011;6408;59.388;17.798;2023-05-02T02:44:59;1.63;;;0.70;;
12687;SDS011;6408;59.388;17.798;2023-05-02T02:47:39;0.50;;;0.50;;
12687;SDS011;6408;59.388;17.798;2023-05-02T02:50:11;0.60;;;0.60;;
12687;SDS011;6408;59.388;17.798;2023-05-02T02:52:50;0.43;;;0.43;;
12687;SDS011;6408;59.388;17.798;2023-05-02T02:55:23;0.40;;;0.40;;
12687;SDS011;6408;59.388;17.798;2023-05-02T02:58:03;0.80;;;0.50;;
12687;SDS011;6408;59.388;17.798;2023-05-02T03:00:41;0.50;;;0.50;;
12687;SDS011;6408;59.388;17.798;2023-05-02T03:03:12;0.50;;;0.50;;
12687;SDS011;6408;59.388;17.798;2023-05-02T03:05:40;1.97;;;0.70;;
12687;SDS011;6408;59.388;17.798;2023-05-02T03:08:09;0.50;;;0.50;;
12687;SDS011;6408;59.388;17.798;2023-05-02T03:10:36;0.70;;;0.70;;
12687;SDS011;6408;59.388;17.798;2023-05-02T03:13:04;0.40;;;0.40;;
12687;SDS011;6408;59.388;17.798;2023-05-02T03:15:46;0.80;;;0.70;;
12687;SDS011;6408;59.388;17.798;2023-05-02T03:18:48;0.50;;;0.50;;
12687;SDS011;6408;59.388;17.798;2023-05-02T03:21:16;0.60;;;0.60;;
12687;SDS011;6408;59.388;17.798;2023-05-02T03:23:43;0.60;;;0.60;;
12687;SDS011;6408;59.388;17.798;2023-05-02T03:26:11;0.50;;;0.50;;
12687;SDS011;6408;59.388;17.798;2023-05-02T03:28:38;0.80;;;0.80;;
12687;SDS011;6408;59.388;17.798;2023-05-02T03:31:06;1.17;;;0.73;;
12687;SDS011;6408;59.388;17.798;2023-05-02T03:33:33;0.70;;;0.70;;
12687;SDS011;6408;59.388;17.798;2023-05-02T03:36:03;0.80;;;0.80;;
12687;SDS011;6408;59.388;17.798;2023-05-02T03:38:31;0.80;;;0.80;;
12687;SDS011;6408;59.388;17.798;2023-05-02T03:40:58;0.70;;;0.70;;
12687;SDS011;6408;59.388;17.798;2023-05-02T03:43:27;0.63;;;0.63;;
12687;SDS011;6408;59.388;17.798;2023-05-02T03:45:54;1.10;;;1.00;;
12687;SDS011;6408;59.388;17.798;2023-05-02T03:48:22;1.37;;;0.90;;
12687;SDS011;6408;59.388;17.798;2023-05-02T03:50:49;1.90;;;0.87;;
12687;SDS011;6408;59.388;17.798;2023-05-02T03:53:18;1.10;;;0.90;;
12687;SDS011;6408;59.388;17.798;2023-05-02T03:55:46;1.27;;;1.17;;
12687;SDS011;6408;59.388;17.798;2023-05-02T03:58:13;1.00;;;0.80;;
12687;SDS011;6408;59.388;17.798;2023-05-02T04:00:41;1.40;;;1.30;;
12687;SDS011;6408;59.388;17.798;2023-05-02T04:03:09;1.23;;;0.90;;
12687;SDS011;6408;59.388;17.798;2023-05-02T04:05:36;1.40;;;1.13;;
12687;SDS011;6408;59.388;17.798;2023-05-02T04:08:04;1.23;;;1.10;;
12687;SDS011;6408;59.388;17.798;2023-05-02T04:10:33;1.30;;;1.20;;
12687;SDS011;6408;59.388;17.798;2023-05-02T04:13:01;1.30;;;1.20;;
12687;SDS011;6408;59.388;17.798;2023-05-02T04:15:29;1.23;;;1.10;;
12687;SDS011;6408;59.388;17.798;2023-05-02T04:17:57;1.27;;;1.17;;
12687;SDS011;6408;59.388;17.798;2023-05-02T04:20:25;1.20;;;1.10;;
12687;SDS011;6408;59.388;17.798;2023-05-02T04:22:52;1.43;;;1.33;;
12687;SDS011;6408;59.388;17.798;2023-05-02T04:25:20;1.10;;;1.00;;
12687;SDS011;6408;59.388;17.798;2023-05-02T04:27:49;1.27;;;1.10;;
12687;SDS011;6408;59.388;17.798;2023-05-02T04:30:17;0.90;;;0.90;;
12687;SDS011;6408;59.388;17.798;2023-05-02T04:32:44;1.30;;;1.20;;
12687;SDS011;6408;59.388;17.798;2023-05-02T04:35:12;0.77;;;0.77;;
12687;SDS011;6408;59.388;17.798;2023-05-02T04:37:41;0.80;;;0.80;;
12687;SDS011;6408;59.388;17.798;2023-05-02T04:40:09;0.87;;;0.87;;
12687;SDS011;6408;59.388;17.798;2023-05-02T04:42:37;0.80;;;0.80;;
12687;SDS011;6408;59.388;17.798;2023-05-02T04:45:07;0.90;;;0.90;;
12687;SDS011;6408;59.388;17.798;2023-05-02T04:47:35;1.43;;;1.10;;
12687;SDS011;6408;59.388;17.798;2023-05-02T04:50:02;0.87;;;0.87;;
12687;SDS011;6408;59.388;17.798;2023-05-02T04:52:31;1.10;;;1.00;;
12687;SDS011;6408;59.388;17.798;2023-05-02T04:54:58;0.90;;;0.90;;
12687;SDS011;6408;59.388;17.798;2023-05-02T04:57:26;1.20;;;1.10;;
12687;SDS011;6408;59.388;17.798;2023-05-02T04:59:53;0.83;;;0.83;;
12687;SDS011;6408;59.388;17.798;2023-05-02T05:02:22;1.13;;;1.07;;
12687;SDS011;6408;59.388;17.798;2023-05-02T05:04:50;0.83;;;0.80;;
12687;SDS011;6408;59.388;17.798;2023-05-02T05:07:17;1.70;;;1.07;;
12687;SDS011;6408;59.388;17.798;2023-05-02T05:09:45;1.83;;;0.90;;
12687;SDS011;6408;59.388;17.798;2023-05-02T05:12:12;1.27;;;1.17;;
12687;SDS011;6408;59.388;17.798;2023-05-02T05:14:40;0.90;;;0.90;;
12687;SDS011;6408;59.388;17.798;2023-05-02T05:17:08;0.80;;;0.80;;
12687;SDS011;6408;59.388;17.798;2023-05-02T05:19:37;1.23;;;1.10;;
12687;SDS011;6408;59.388;17.798;2023-05-02T05:22:05;1.20;;;1.10;;
12687;SDS011;6408;59.388;17.798;2023-05-02T05:24:32;1.20;;;1.10;;
12687;SDS011;6408;59.388;17.798;2023-05-02T05:27:00;0.87;;;0.87;;
12687;SDS011;6408;59.388;17.798;2023-05-02T05:29:30;1.60;;;1.30;;
12687;SDS011;6408;59.388;17.798;2023-05-02T05:31:57;1.53;;;1.43;;
12687;SDS011;6408;59.388;17.798;2023-05-02T05:34:25;3.03;;;1.47;;
12687;SDS011;6408;59.388;17.798;2023-05-02T05:36:54;1.60;;;1.50;;
12687;SDS011;6408;59.388;17.798;2023-05-02T05:39:22;1.50;;;1.30;;
12687;SDS011;6408;59.388;17.798;2023-05-02T05:41:49;1.77;;;1.60;;
12687;SDS011;6408;59.388;17.798;2023-05-02T05:44:18;1.60;;;1.50;;
12687;SDS011;6408;59.388;17.798;2023-05-02T05:46:46;1.50;;;1.40;;
12687;SDS011;6408;59.388;17.798;2023-05-02T05:49:14;1.63;;;1.40;;
12687;SDS011;6408;59.388;17.798;2023-05-02T05:51:41;1.40;;;1.30;;
12687;SDS011;6408;59.388;17.798;2023-05-02T05:54:13;1.63;;;1.50;;
12687;SDS011;6408;59.388;17.798;2023-05-02T05:56:42;1.57;;;1.40;;
12687;SDS011;6408;59.388;17.798;2023-05-02T05:59:09;2.27;;;1.57;;
12687;SDS011;6408;59.388;17.798;2023-05-02T06:01:37;3.07;;;1.50;;
12687;SDS011;6408;59.388;17.798;2023-05-02T06:04:04;1.73;;;1.57;;
12687;SDS011;6408;59.388;17.798;2023-05-02T06:06:32;1.60;;;1.50;;
12687;SDS011;6408;59.388;17.798;2023-05-02T06:09:00;1.70;;;1.60;;
12687;SDS011;6408;59.388;17.798;2023-05-02T06:11:30;2.07;;;1.70;;
12687;SDS011;6408;59.388;17.798;2023-05-02T06:13:57;1.90;;;1.50;;
12687;SDS011;6408;59.388;17.798;2023-05-02T06:16:25;1.70;;;1.60;;
12687;SDS011;6408;59.388;17.798;2023-05-02T06:18:52;1.83;;;1.70;;
12687;SDS011;6408;59.388;17.798;2023-05-02T06:21:20;2.90;;;1.77;;
12687;SDS011;6408;59.388;17.798;2023-05-02T06:23:47;1.73;;;1.50;;
12687;SDS011;6408;59.388;17.798;2023-05-02T06:26:15;1.53;;;1.43;;
12687;SDS011;6408;59.388;17.798;2023-05-02T06:28:44;1.53;;;1.43;;
12687;SDS011;6408;59.388;17.798;2023-05-02T06:31:12;1.67;;;1.50;;
12687;SDS011;6408;59.388;17.798;2023-05-02T06:33:40;1.73;;;1.60;;
12687;SDS011;6408;59.388;17.798;2023-05-02T06:36:10;2.23;;;1.63;;
12687;SDS011;6408;59.388;17.798;2023-05-02T06:38:37;1.50;;;1.40;;
12687;SDS011;6408;59.388;17.798;2023-05-02T06:41:05;2.70;;;1.67;;
12687;SDS011;6408;59.388;17.798;2023-05-02T06:43:38;1.83;;;1.50;;
12687;SDS011;6408;59.388;17.798;2023-05-02T06:46:07;2.23;;;1.70;;
12687;SDS011;6408;59.388;17.798;2023-05-02T06:48:35;2.03;;;1.83;;
12687;SDS011;6408;59.388;17.798;2023-05-02T06:51:02;1.77;;;1.60;;
12687;SDS011;6408;59.388;17.798;2023-05-02T06:53:30;1.60;;;1.50;;
12687;SDS011;6408;59.388;17.798;2023-05-02T06:55:58;1.80;;;1.50;;
12687;SDS011;6408;59.388;17.798;2023-05-02T06:58:25;2.03;;;1.67;;
12687;SDS011;6408;59.388;17.798;2023-05-02T07:00:53;1.83;;;1.60;;
12687;SDS011;6408;59.388;17.798;2023-05-02T07:03:22;2.00;;;1.60;;
12687;SDS011;6408;59.388;17.798;2023-05-02T07:05:50;1.73;;;1.60;;
12687;SDS011;6408;59.388;17.798;2023-05-02T07:08:17;2.20;;;1.43;;
12687;SDS011;6408;59.388;17.798;2023-05-02T07:10:46;2.47;;;1.70;;
12687;SDS011;6408;59.388;17.798;2023-05-02T07:13:13;2.10;;;1.50;;
12687;SDS011;6408;59.388;17.798;2023-05-02T07:15:41;1.70;;;1.50;;
12687;SDS011;6408;59.388;17.798;2023-05-02T07:18:09;1.73;;;1.63;;
12687;SDS011;6408;59.388;17.798;2023-05-02T07:20:38;1.93;;;1.60;;
12687;SDS011;6408;59.388;17.798;2023-05-02T07:23:06;1.93;;;1.70;;
12687;SDS011;6408;59.388;17.798;2023-05-02T07:25:34;1.47;;;1.37;;
12687;SDS011;6408;59.388;17.798;2023-05-02T07:28:04;1.40;;;1.30;;
12687;SDS011;6408;59.388;17.798;2023-05-02T07:30:31;1.50;;;1.33;;
12687;SDS011;6408;59.388;17.798;2023-05-02T07:32:59;1.63;;;1.30;;
12687;SDS011;6408;59.388;17.798;2023-05-02T07:35:26;3.53;;;1.20;;
12687;SDS011;6408;59.388;17.798;2023-05-02T07:37:56;1.67;;;1.40;;
12687;SDS011;6408;59.388;17.798;2023-05-02T07:40:23;1.47;;;1.10;;
12687;SDS011;6408;59.388;17.798;2023-05-02T07:42:52;1.53;;;1.20;;
12687;SDS011;6408;59.388;17.798;2023-05-02T07:45:19;1.27;;;1.10;;
12687;SDS011;6408;59.388;17.798;2023-05-02T07:47:47;1.63;;;1.10;;
12687;SDS011;6408;59.388;17.798;2023-05-02T07:50:15;1.67;;;1.27;;
12687;SDS011;6408;59.388;17.798;2023-05-02T07:52:42;1.60;;;1.13;;
12687;SDS011;6408;59.388;17.798;2023-05-02T07:55:11;1.40;;;1.00;;
12687;SDS011;6408;59.388;17.798;2023-05-02T07:57:39;1.17;;;1.03;;
12687;SDS011;6408;59.388;17.798;2023-05-02T08:00:07;2.70;;;1.20;;
12687;SDS011;6408;59.388;17.798;2023-05-02T08:02:35;1.97;;;1.23;;
12687;SDS011;6408;59.388;17.798;2023-05-02T08:05:03;1.13;;;1.03;;
12687;SDS011;6408;59.388;17.798;2023-05-02T08:07:31;1.20;;;1.03;;
12687;SDS011;6408;59.388;17.798;2023-05-02T08:09:59;1.20;;;1.10;;
12687;SDS011;6408;59.388;17.798;2023-05-02T08:12:28;1.57;;;1.47;;
12687;SDS011;6408;59.388;17.798;2023-05-02T08:14:56;1.20;;;1.10;;
12687;SDS011;6408;59.388;17.798;2023-05-02T08:17:23;1.13;;;1.03;;
12687;SDS011;6408;59.388;17.798;2023-05-02T08:19:53;1.30;;;1.20;;
12687;SDS011;6408;59.388;17.798;2023-05-02T08:22:20;1.83;;;1.10;;
12687;SDS011;6408;59.388;17.798;2023-05-02T08:24:48;1.20;;;1.10;;
12687;SDS011;6408;59.388;17.798;2023-05-02T08:27:15;1.13;;;1.03;;
12687;SDS011;6408;59.388;17.798;2023-05-02T08:29:44;1.10;;;1.00;;
12687;SDS011;6408;59.388;17.798;2023-05-02T08:32:12;2.23;;;1.10;;
12687;SDS011;6408;59.388;17.798;2023-05-02T08:34:39;1.10;;;1.00;;
12687;SDS011;6408;59.388;17.798;2023-05-02T08:37:07;1.40;;;1.00;;
12687;SDS011;6408;59.388;17.798;2023-05-02T08:39:36;1.23;;;0.87;;
12687;SDS011;6408;59.388;17.798;2023-05-02T08:42:05;0.80;;;0.80;;
12687;SDS011;6408;59.388;17.798;2023-05-02T08:44:33;1.00;;;0.90;;
12687;SDS011;6408;59.388;17.798;2023-05-02T08:47:02;1.40;;;1.00;;
12687;SDS011;6408;59.388;17.798;2023-05-02T08:49:31;2.23;;;1.30;;
12687;SDS011;6408;59.388;17.798;2023-05-02T08:52:01;1.10;;;1.00;;
12687;SDS011;6408;59.388;17.798;2023-05-02T08:54:30;1.27;;;1.00;;
12687;SDS011;6408;59.388;17.798;2023-05-02T08:56:58;1.13;;;0.90;;
12687;SDS011;6408;59.388;17.798;2023-05-02T08:59:29;0.90;;;0.90;;
12687;SDS011;6408;59.388;17.798;2023-05-02T09:01:58;2.00;;;1.00;;
12687;SDS011;6408;59.388;17.798;2023-05-02T09:04:32;1.60;;;0.90;;
12687;SDS011;6408;59.388;17.798;2023-05-02T09:07:04;1.17;;;1.00;;
12687;SDS011;6408;59.388;17.798;2023-05-02T09:09:32;1.80;;;1.10;;
12687;SDS011;6408;59.388;17.798;2023-05-02T09:12:00;1.70;;;1.07;;
12687;SDS011;6408;59.388;17.798;2023-05-02T09:14:28;1.53;;;1.20;;
12687;SDS011;6408;59.388;17.798;2023-05-02T09:16:57;1.67;;;1.00;;
12687;SDS011;6408;59.388;17.798;2023-05-02T09:19:25;1.43;;;1.00;;
12687;SDS011;6408;59.388;17.798;2023-05-02T09:21:59;1.33;;;1.00;;
12687;SDS011;6408;59.388;17.798;2023-05-02T09:24:27;1.30;;;0.80;;
12687;SDS011;6408;59.388;17.798;2023-05-02T09:26:56;0.93;;;0.93;;
12687;SDS011;6408;59.388;17.798;2023-05-02T09:29:25;2.27;;;1.00;;
12687;SDS011;6408;59.388;17.798;2023-05-02T09:31:54;1.00;;;0.90;;
12687;SDS011;6408;59.388;17.798;2023-05-02T09:34:22;1.00;;;0.90;;
12687;SDS011;6408;59.388;17.798;2023-05-02T09:36:50;1.20;;;1.10;;
12687;SDS011;6408;59.388;17.798;2023-05-02T09:39:21;1.50;;;1.10;;
12687;SDS011;6408;59.388;17.798;2023-05-02T09:41:49;1.33;;;1.17;;
12687;SDS011;6408;59.388;17.798;2023-05-02T09:44:17;1.00;;;0.97;;
12687;SDS011;6408;59.388;17.798;2023-05-02T09:46:46;1.73;;;1.00;;
12687;SDS011;6408;59.388;17.798;2023-05-02T09:49:15;2.03;;;1.13;;
12687;SDS011;6408;59.388;17.798;2023-05-02T09:51:44;1.40;;;1.30;;
12687;SDS011;6408;59.388;17.798;2023-05-02T09:54:12;1.83;;;1.20;;
12687;SDS011;6408;59.388;17.798;2023-05-02T09:56:53;0.90;;;0.90;;
12687;SDS011;6408;59.388;17.798;2023-05-02T09:59:22;1.33;;;1.10;;
12687;SDS011;6408;59.388;17.798;2023-05-02T10:01:53;0.90;;;0.90;;
12687;SDS011;6408;59.388;17.798;2023-05-02T10:04:22;1.20;;;1.10;;
12687;SDS011;6408;59.388;17.798;2023-05-02T10:06:51;1.47;;;1.00;;
12687;SDS011;6408;59.388;17.798;2023-05-02T10:09:20;1.13;;;1.00;;
12687;SDS011;6408;59.388;17.798;2023-05-02T10:11:50;2.90;;;1.00;;
12687;SDS011;6408;59.388;17.798;2023-05-02T10:14:21;1.10;;;1.00;;
12687;SDS011;6408;59.388;17.798;2023-05-02T10:16:52;1.30;;;1.20;;
12687;SDS011;6408;59.388;17.798;2023-05-02T10:19:26;1.00;;;0.90;;
12687;SDS011;6408;59.388;17.798;2023-05-02T10:21:58;2.13;;;1.57;;
12687;SDS011;6408;59.388;17.798;2023-05-02T10:24:25;0.97;;;0.93;;
12687;SDS011;6408;59.388;17.798;2023-05-02T10:26:54;0.93;;;0.93;;
12687;SDS011;6408;59.388;17.798;2023-05-02T10:29:24;1.70;;;1.23;;
12687;SDS011;6408;59.388;17.798;2023-05-02T10:31:54;1.50;;;1.20;;
12687;SDS011;6408;59.388;17.798;2023-05-02T10:34:24;0.90;;;0.90;;
12687;SDS011;6408;59.388;17.798;2023-05-02T10:36:53;1.63;;;0.97;;
12687;SDS011;6408;59.388;17.798;2023-05-02T10:39:25;2.07;;;1.00;;
12687;SDS011;6408;59.388;17.798;2023-05-02T10:41:54;1.03;;;0.93;;
12687;SDS011;6408;59.388;17.798;2023-05-02T10:44:32;0.90;;;0.90;;
12687;SDS011;6408;59.388;17.798;2023-05-02T10:47:01;1.40;;;1.07;;
12687;SDS011;6408;59.388;17.798;2023-05-02T10:49:48;0.97;;;0.83;;
12687;SDS011;6408;59.388;17.798;2023-05-02T10:52:30;1.40;;;1.27;;
12687;SDS011;6408;59.388;17.798;2023-05-02T10:55:14;1.00;;;0.87;;
12687;SDS011;6408;59.388;17.798;2023-05-02T11:00:50;1.70;;;1.10;;
12687;SDS011;6408;59.388;17.798;2023-05-02T11:06:27;3.33;;;1.20;;
12687;SDS011;6408;59.388;17.798;2023-05-02T11:12:01;1.53;;;1.13;;
12687;SDS011;6408;59.388;17.798;2023-05-02T11:15:03;0.93;;;0.90;;
12687;SDS011;6408;59.388;17.798;2023-05-02T11:17:32;1.57;;;0.77;;
12687;SDS011;6408;59.388;17.798;2023-05-02T11:20:29;1.67;;;0.80;;
12687;SDS011;6408;59.388;17.798;2023-05-02T11:26:19;1.33;;;0.83;;
12687;SDS011;6408;59.388;17.798;2023-05-02T11:28:49;0.70;;;0.70;;
12687;SDS011;6408;59.388;17.798;2023-05-02T11:37:38;1.53;;;0.93;;
12687;SDS011;6408;59.388;17.798;2023-05-02T11:40:11;1.30;;;0.80;;
12687;SDS011;6408;59.388;17.798;2023-05-02T11:42:52;1.53;;;0.70;;
12687;SDS011;6408;59.388;17.798;2023-05-02T11:45:21;0.77;;;0.70;;
12687;SDS011;6408;59.388;17.798;2023-05-02T11:47:49;3.40;;;0.70;;
12687;SDS011;6408;59.388;17.798;2023-05-02T11:50:32;0.90;;;0.60;;
12687;SDS011;6408;59.388;17.798;2023-05-02T11:53:09;1.10;;;1.00;;
12687;SDS011;6408;59.388;17.798;2023-05-02T11:55:44;0.70;;;0.70;;
12687;SDS011;6408;59.388;17.798;2023-05-02T11:58:13;0.97;;;0.63;;
12687;SDS011;6408;59.388;17.798;2023-05-02T12:01:14;0.63;;;0.63;;
12687;SDS011;6408;59.388;17.798;2023-05-02T12:03:42;1.53;;;0.60;;
12687;SDS011;6408;59.388;17.798;2023-05-02T12:06:09;0.77;;;0.77;;
12687;SDS011;6408;59.388;17.798;2023-05-02T12:08:39;0.63;;;0.63;;
12687;SDS011;6408;59.388;17.798;2023-05-02T12:11:08;1.53;;;0.73;;
12687;SDS011;6408;59.388;17.798;2023-05-02T12:13:43;1.03;;;0.50;;
12687;SDS011;6408;59.388;17.798;2023-05-02T12:16:11;0.70;;;0.67;;
12687;SDS011;6408;59.388;17.798;2023-05-02T12:18:41;0.67;;;0.60;;
12687;SDS011;6408;59.388;17.798;2023-05-02T12:21:09;0.43;;;0.43;;
12687;SDS011;6408;59.388;17.798;2023-05-02T12:23:38;0.60;;;0.60;;
12687;SDS011;6408;59.388;17.798;2023-05-02T12:26:15;0.93;;;0.70;;
12687;SDS011;6408;59.388;17.798;2023-05-02T12:28:46;1.00;;;0.77;;
12687;SDS011;6408;59.388;17.798;2023-05-02T12:31:16;0.90;;;0.80;;
12687;SDS011;6408;59.388;17.798;2023-05-02T12:33:45;2.10;;;0.63;;
12687;SDS011;6408;59.388;17.798;2023-05-02T12:36:14;3.10;;;0.77;;
12687;SDS011;6408;59.388;17.798;2023-05-02T12:38:46;1.37;;;0.80;;
12687;SDS011;6408;59.388;17.798;2023-05-02T12:41:15;2.77;;;0.77;;
12687;SDS011;6408;59.388;17.798;2023-05-02T12:43:44;1.57;;;0.80;;
12687;SDS011;6408;59.388;17.798;2023-05-02T12:46:12;0.77;;;0.60;;
12687;SDS011;6408;59.388;17.798;2023-05-02T12:48:42;0.60;;;0.60;;
12687;SDS011;6408;59.388;17.798;2023-05-02T12:51:19;2.27;;;0.70;;
12687;SDS011;6408;59.388;17.798;2023-05-02T12:53:48;0.80;;;0.50;;
12687;SDS011;6408;59.388;17.798;2023-05-02T12:56:16;0.97;;;0.73;;
12687;SDS011;6408;59.388;17.798;2023-05-02T12:58:45;1.27;;;0.73;;
12687;SDS011;6408;59.388;17.798;2023-05-02T13:01:13;0.83;;;0.77;;
12687;SDS011;6408;59.388;17.798;2023-05-02T13:03:43;0.60;;;0.50;;
12687;SDS011;6408;59.388;17.798;2023-05-02T13:06:10;0.50;;;0.50;;
12687;SDS011;6408;59.388;17.798;2023-05-02T13:08:38;0.70;;;0.70;;
12687;SDS011;6408;59.388;17.798;2023-05-02T13:11:05;2.63;;;0.90;;
12687;SDS011;6408;59.388;17.798;2023-05-02T13:13:33;0.77;;;0.57;;
12687;SDS011;6408;59.388;17.798;2023-05-02T13:16:00;0.50;;;0.50;;
12687;SDS011;6408;59.388;17.798;2023-05-02T13:18:28;1.33;;;0.70;;
12687;SDS011;6408;59.388;17.798;2023-05-02T13:20:58;0.57;;;0.57;;
12687;SDS011;6408;59.388;17.798;2023-05-02T13:23:25;0.50;;;0.50;;
12687;SDS011;6408;59.388;17.798;2023-05-02T13:25:53;0.53;;;0.50;;
12687;SDS011;6408;59.388;17.798;2023-05-02T13:28:21;0.60;;;0.57;;
12687;SDS011;6408;59.388;17.798;2023-05-02T13:30:48;0.60;;;0.60;;
12687;SDS011;6408;59.388;17.798;2023-05-02T13:33:16;0.60;;;0.60;;
12687;SDS011;6408;59.388;17.798;2023-05-02T13:35:43;0.50;;;0.50;;
12687;SDS011;6408;59.388;17.798;2023-05-02T13:38:13;0.53;;;0.53;;
12687;SDS011;6408;59.388;17.798;2023-05-02T13:40:41;0.87;;;0.60;;
12687;SDS011;6408;59.388;17.798;2023-05-02T13:43:08;0.97;;;0.80;;
12687;SDS011;6408;59.388;17.798;2023-05-02T13:45:36;0.50;;;0.50;;
12687;SDS011;6408;59.388;17.798;2023-05-02T13:48:03;1.10;;;0.60;;
12687;SDS011;6408;59.388;17.798;2023-05-02T13:50:31;0.80;;;0.67;;
12687;SDS011;6408;59.388;17.798;2023-05-02T13:53:01;0.63;;;0.63;;
12687;SDS011;6408;59.388;17.798;2023-05-02T13:55:30;0.57;;;0.57;;
12687;SDS011;6408;59.388;17.798;2023-05-02T13:57:58;0.53;;;0.53;;
12687;SDS011;6408;59.388;17.798;2023-05-02T14:00:25;0.40;;;0.40;;
12687;SDS011;6408;59.388;17.798;2023-05-02T14:02:53;0.43;;;0.40;;
12687;SDS011;6408;59.388;17.798;2023-05-02T14:05:21;0.40;;;0.40;;
12687;SDS011;6408;59.388;17.798;2023-05-02T14:07:48;0.80;;;0.60;;
12687;SDS011;6408;59.388;17.798;2023-05-02T14:10:15;0.63;;;0.50;;
12687;SDS011;6408;59.388;17.798;2023-05-02T14:12:45;0.60;;;0.60;;
12687;SDS011;6408;59.388;17.798;2023-05-02T14:15:12;0.60;;;0.60;;
12687;SDS011;6408;59.388;17.798;2023-05-02T14:17:40;0.70;;;0.70;;
12687;SDS011;6408;59.388;17.798;2023-05-02T14:20:08;0.43;;;0.43;;
12687;SDS011;6408;59.388;17.798;2023-05-02T14:22:36;0.50;;;0.50;;
12687;SDS011;6408;59.388;17.798;2023-05-02T14:25:04;0.60;;;0.60;;
12687;SDS011;6408;59.388;17.798;2023-05-02T14:27:32;0.60;;;0.43;;
12687;SDS011;6408;59.388;17.798;2023-05-02T14:30:01;1.33;;;0.50;;
12687;SDS011;6408;59.388;17.798;2023-05-02T14:32:28;0.50;;;0.50;;
12687;SDS011;6408;59.388;17.798;2023-05-02T14:34:56;2.10;;;0.60;;
12687;SDS011;6408;59.388;17.798;2023-05-02T14:37:23;0.50;;;0.50;;
12687;SDS011;6408;59.388;17.798;2023-05-02T14:39:50;0.60;;;0.50;;
12687;SDS011;6408;59.388;17.798;2023-05-02T14:42:20;0.40;;;0.30;;
12687;SDS011;6408;59.388;17.798;2023-05-02T14:44:47;0.40;;;0.33;;
12687;SDS011;6408;59.388;17.798;2023-05-02T14:47:17;0.80;;;0.40;;
12687;SDS011;6408;59.388;17.798;2023-05-02T14:49:45;1.43;;;0.43;;
12687;SDS011;6408;59.388;17.798;2023-05-02T14:52:12;0.43;;;0.43;;
12687;SDS011;6408;59.388;17.798;2023-05-02T14:54:40;1.67;;;0.50;;
12687;SDS011;6408;59.388;17.798;2023-05-02T14:57:07;0.30;;;0.30;;
12687;SDS011;6408;59.388;17.798;2023-05-02T14:59:35;1.57;;;0.50;;
12687;SDS011;6408;59.388;17.798;2023-05-02T15:02:02;0.40;;;0.40;;
12687;SDS011;6408;59.388;17.798;2023-05-02T15:04:32;0.53;;;0.50;;
12687;SDS011;6408;59.388;17.798;2023-05-02T15:06:59;0.63;;;0.40;;
12687;SDS011;6408;59.388;17.798;2023-05-02T15:09:27;0.93;;;0.63;;
12687;SDS011;6408;59.388;17.798;2023-05-02T15:11:54;0.53;;;0.50;;
12687;SDS011;6408;59.388;17.798;2023-05-02T15:14:22;0.37;;;0.37;;
12687;SDS011;6408;59.388;17.798;2023-05-02T15:16:49;0.40;;;0.40;;
12687;SDS011;6408;59.388;17.798;2023-05-02T15:19:17;0.40;;;0.40;;
12687;SDS011;6408;59.388;17.798;2023-05-02T15:21:48;0.30;;;0.30;;